Henderson, North Carolina
Current Conditions -  °F | °C
As of 9:35 AM on Monday 22 Dec 2014 (Local Time) from KHNZ Reporting Station
Drizzle Drizzle  
Wind Chill: 28°   Ceiling: 500
Heat Index: 35°   Visibility: 1.7mi
Dew Point: 33°   Wind: 9mph
Humidity: 94%   Direction: 20°NNE
Pressure: 30.18"   Gusts: NA
Location:  36.33°N, 78.4°W
Report Text: KHNZ 221435Z AUTO 02008KT 1 3/4SM -DZ OVC005 02/01 A3018 RMK AO2 P0001 T00160007
Loading
Personal Weather Stations






























Interactive Weather Map New forecast layout! Learn more

10-Day Weather Forecast

Advertisements
Track Severe Weather on mobile